Costa Romantica — IBCR — position and weather

sailwx.info

Track history (hours):
 
Tides and Currents Weather Stations Pressure Air Temp Water Temp Dewpoint Dewpoint Depression Visibility Wind Speed Wind Dir Waves Ship Positions

Costa Romantica

Last reported at 2019-Oct-17 09:53 UTC. Time now 2019-Oct-18 23:33 UTC.
Position N 25°21' E 122°36'.

Length 221 m; draft 7.8 m.

Type: Ship. MMSI: 247817000.

Date/timePositionNaut miles runAvg speedWind from/ knotsBaromVisibWave heightAir tempDewpointWater temp
2019-Oct-17 09:53N 25°21' E 122°36'914.8
2019-Oct-17 09:14N 25°20' E 122°25'514.8
2019-Oct-17 08:54N 25°19' E 122°20'714.2
2019-Oct-17 08:25N 25°18' E 122°13'714.5
2019-Oct-17 07:57N 25°17' E 122°05'815.2
2019-Oct-17 07:26N 25°16' E 121°57'615.0
2019-Oct-17 07:00N 25°16' E 121°49'510.6
2019-Oct-17 06:30N 25°12' E 121°46'4 7.4
2019-Oct-17 05:59N 25°08' E 121°45'0 0.0
2019-Oct-17 05:29N 25°08' E 121°45'0 0.0
2019-Oct-17 04:59N 25°08' E 121°45'0 0.0
2019-Oct-17 04:29N 25°08' E 121°45'0 0.0
2019-Oct-17 03:59N 25°08' E 121°45'0 0.0
2019-Oct-17 03:29N 25°08' E 121°45'0 0.0
2019-Oct-17 02:59N 25°08' E 121°45'0 0.0
2019-Oct-17 02:29N 25°08' E 121°45'0 0.0
2019-Oct-17 01:59N 25°08' E 121°45'0 0.0
2019-Oct-17 01:29N 25°08' E 121°45'0 0.0
2019-Oct-17 00:59N 25°08' E 121°45'0 0.0
2019-Oct-17 00:26N 25°08' E 121°45'0 0.0
2019-Oct-16 23:59N 25°08' E 121°45'0 0.0
2019-Oct-16 23:29N 25°08' E 121°45'0 0.0
2019-Oct-16 23:00N 25°08' E 121°45'0 0.9
2019-Oct-16 22:30N 25°08' E 121°45'4 7.8
2019-Oct-16 22:00N 25°12' E 121°45'816.2
2019-Oct-16 21:30N 25°20' E 121°46'916.1
2019-Oct-16 20:59N 25°29' E 121°45'816.0
2019-Oct-16 20:28N 25°37' E 121°46'915.9
2019-Oct-16 19:55N 25°45' E 121°49'716.2
2019-Oct-16 19:28N 25°52' E 121°53'  
2019-Oct-12 09:26N 25°31' E 122°13'716.6
2019-Oct-12 09:00N 25°27' E 122°06'815.4
2019-Oct-12 08:29N 25°22' E 121°59'916.7
2019-Oct-12 07:58N 25°17' E 121°51'714.6
2019-Oct-12 07:30N 25°13' E 121°46'4 8.9
2019-Oct-12 07:00N 25°08' E 121°45'0 0.6
2019-Oct-12 06:28N 25°08' E 121°45'0 0.0
2019-Oct-12 05:58N 25°08' E 121°45'0 0.0
2019-Oct-12 05:28N 25°08' E 121°45'0 0.0
2019-Oct-12 04:55N 25°08' E 121°45'0 0.0
2019-Oct-12 04:28N 25°08' E 121°45'0 0.0
2019-Oct-12 03:58N 25°08' E 121°45'0 0.0
2019-Oct-12 03:28N 25°08' E 121°45'0 0.0
2019-Oct-12 02:58N 25°08' E 121°45'0 0.0
2019-Oct-12 02:28N 25°08' E 121°45'0 0.0
2019-Oct-12 01:58N 25°08' E 121°45'0 0.0
2019-Oct-12 01:28N 25°08' E 121°45'0 0.0
2019-Oct-12 00:58N 25°08' E 121°45'0 0.0
2019-Oct-12 00:25N 25°08' E 121°45'0 0.0
2019-Oct-11 23:58N 25°08' E 121°45'0 0.5
2019-Oct-11 23:30N 25°08' E 121°45'2 3.4
2019-Oct-11 23:00N 25°10' E 121°45'5 9.4
2019-Oct-11 22:30N 25°14' E 121°47'713.7
2019-Oct-11 22:01N 25°14' E 121°54'713.3
2019-Oct-11 21:27N 25°14' E 122°02'713.4
2019-Oct-11 20:56N 25°13' E 122°10'613.6
2019-Oct-11 20:30N 25°12' E 122°16'713.1
2019-Oct-11 19:56N 25°12' E 122°24'612.8
2019-Oct-11 19:30N 25°12' E 122°31'  
2019-Oct-09 07:00N 25°16' E 121°50'612.0
2019-Oct-09 06:30N 25°11' E 121°46'4 7.2
2019-Oct-09 06:01N 25°08' E 121°45'0 0.0
2019-Oct-09 05:25N 25°08' E 121°45'0 0.0
2019-Oct-09 04:58N 25°08' E 121°45'0 0.0
2019-Oct-09 04:28N 25°08' E 121°45'0 0.0
2019-Oct-09 03:58N 25°08' E 121°45'0 0.0
2019-Oct-09 03:28N 25°08' E 121°45'0 0.0
2019-Oct-09 02:58N 25°08' E 121°45'0 0.0
2019-Oct-09 02:28N 25°08' E 121°45'0 0.0
2019-Oct-09 01:58N 25°08' E 121°45'0 0.0
2019-Oct-09 01:28N 25°08' E 121°45'0 0.0
2019-Oct-09 00:58N 25°08' E 121°45'0 0.0
2019-Oct-09 00:29N 25°08' E 121°45'0 0.6
2019-Oct-09 00:00N 25°08' E 121°45'2 4.4
2019-Oct-08 23:30N 25°10' E 121°45'714.8
2019-Oct-08 23:00N 25°18' E 121°44'1916.6
2019-Oct-08 21:50N 25°36' E 121°51'616.4
2019-Oct-08 21:30N 25°42' E 121°51'815.8
2019-Oct-08 20:58N 25°50' E 121°52'32014.0
2019-Oct-07 22:12N 31°08' E 122°26'1 1.5
2019-Oct-07 21:47N 31°08' E 122°26'1 4.8
2019-Oct-07 21:29N 31°07' E 122°27'611.0
2019-Oct-07 20:55N 31°07' E 122°34'  
Track history (hours):
 
Tides and Currents Weather Stations Pressure Air Temp Water Temp Dewpoint Dewpoint Depression Visibility Wind Speed Wind Dir Waves Ship Positions

Costa Romantica

Last reported at 2019-Oct-17 09:53 UTC. Time now 2019-Oct-18 23:33 UTC.
Position N 25°21' E 122°36'.

Length 221 m; draft 7.8 m.

Type: Ship. MMSI: 247817000.

Date/timePositionNaut miles runAvg speedWind from/ knotsBaromVisibWave heightAir tempDewpointWater temp
2019-Oct-17 09:53N 25°21' E 122°36'914.8
2019-Oct-17 09:14N 25°20' E 122°25'514.8
2019-Oct-17 08:54N 25°19' E 122°20'714.2
2019-Oct-17 08:25N 25°18' E 122°13'714.5
2019-Oct-17 07:57N 25°17' E 122°05'815.2
2019-Oct-17 07:26N 25°16' E 121°57'615.0
2019-Oct-17 07:00N 25°16' E 121°49'510.6
2019-Oct-17 06:30N 25°12' E 121°46'4 7.4
2019-Oct-17 05:59N 25°08' E 121°45'0 0.0
2019-Oct-17 05:29N 25°08' E 121°45'0 0.0
2019-Oct-17 04:59N 25°08' E 121°45'0 0.0
2019-Oct-17 04:29N 25°08' E 121°45'0 0.0
2019-Oct-17 03:59N 25°08' E 121°45'0 0.0
2019-Oct-17 03:29N 25°08' E 121°45'0 0.0
2019-Oct-17 02:59N 25°08' E 121°45'0 0.0
2019-Oct-17 02:29N 25°08' E 121°45'0 0.0
2019-Oct-17 01:59N 25°08' E 121°45'0 0.0
2019-Oct-17 01:29N 25°08' E 121°45'0 0.0
2019-Oct-17 00:59N 25°08' E 121°45'0 0.0
2019-Oct-17 00:26N 25°08' E 121°45'0 0.0
2019-Oct-16 23:59N 25°08' E 121°45'0 0.0
2019-Oct-16 23:29N 25°08' E 121°45'0 0.0
2019-Oct-16 23:00N 25°08' E 121°45'0 0.9
2019-Oct-16 22:30N 25°08' E 121°45'4 7.8
2019-Oct-16 22:00N 25°12' E 121°45'816.2
2019-Oct-16 21:30N 25°20' E 121°46'916.1
2019-Oct-16 20:59N 25°29' E 121°45'816.0
2019-Oct-16 20:28N 25°37' E 121°46'915.9
2019-Oct-16 19:55N 25°45' E 121°49'716.2
2019-Oct-16 19:28N 25°52' E 121°53'  
2019-Oct-12 09:26N 25°31' E 122°13'716.6
2019-Oct-12 09:00N 25°27' E 122°06'815.4
2019-Oct-12 08:29N 25°22' E 121°59'916.7
2019-Oct-12 07:58N 25°17' E 121°51'714.6
2019-Oct-12 07:30N 25°13' E 121°46'4 8.9
2019-Oct-12 07:00N 25°08' E 121°45'0 0.6
2019-Oct-12 06:28N 25°08' E 121°45'0 0.0
2019-Oct-12 05:58N 25°08' E 121°45'0 0.0
2019-Oct-12 05:28N 25°08' E 121°45'0 0.0
2019-Oct-12 04:55N 25°08' E 121°45'0 0.0
2019-Oct-12 04:28N 25°08' E 121°45'0 0.0
2019-Oct-12 03:58N 25°08' E 121°45'0 0.0
2019-Oct-12 03:28N 25°08' E 121°45'0 0.0
2019-Oct-12 02:58N 25°08' E 121°45'0 0.0
2019-Oct-12 02:28N 25°08' E 121°45'0 0.0
2019-Oct-12 01:58N 25°08' E 121°45'0 0.0
2019-Oct-12 01:28N 25°08' E 121°45'0 0.0
2019-Oct-12 00:58N 25°08' E 121°45'0 0.0
2019-Oct-12 00:25N 25°08' E 121°45'0 0.0
2019-Oct-11 23:58N 25°08' E 121°45'0 0.5
2019-Oct-11 23:30N 25°08' E 121°45'2 3.4
2019-Oct-11 23:00N 25°10' E 121°45'5 9.4
2019-Oct-11 22:30N 25°14' E 121°47'713.7
2019-Oct-11 22:01N 25°14' E 121°54'713.3
2019-Oct-11 21:27N 25°14' E 122°02'713.4
2019-Oct-11 20:56N 25°13' E 122°10'613.6
2019-Oct-11 20:30N 25°12' E 122°16'713.1
2019-Oct-11 19:56N 25°12' E 122°24'612.8
2019-Oct-11 19:30N 25°12' E 122°31'  
2019-Oct-09 07:00N 25°16' E 121°50'612.0
2019-Oct-09 06:30N 25°11' E 121°46'4 7.2
2019-Oct-09 06:01N 25°08' E 121°45'0 0.0
2019-Oct-09 05:25N 25°08' E 121°45'0 0.0
2019-Oct-09 04:58N 25°08' E 121°45'0 0.0
2019-Oct-09 04:28N 25°08' E 121°45'0 0.0
2019-Oct-09 03:58N 25°08' E 121°45'0 0.0
2019-Oct-09 03:28N 25°08' E 121°45'0 0.0
2019-Oct-09 02:58N 25°08' E 121°45'0 0.0
2019-Oct-09 02:28N 25°08' E 121°45'0 0.0
2019-Oct-09 01:58N 25°08' E 121°45'0 0.0
2019-Oct-09 01:28N 25°08' E 121°45'0 0.0
2019-Oct-09 00:58N 25°08' E 121°45'0 0.0
2019-Oct-09 00:29N 25°08' E 121°45'0 0.6
2019-Oct-09 00:00N 25°08' E 121°45'2 4.4
2019-Oct-08 23:30N 25°10' E 121°45'714.8
2019-Oct-08 23:00N 25°18' E 121°44'1916.6
2019-Oct-08 21:50N 25°36' E 121°51'616.4
2019-Oct-08 21:30N 25°42' E 121°51'815.8
2019-Oct-08 20:58N 25°50' E 121°52'32014.0
2019-Oct-07 22:12N 31°08' E 122°26'1 1.5
2019-Oct-07 21:47N 31°08' E 122°26'1 4.8
2019-Oct-07 21:29N 31°07' E 122°27'611.0
2019-Oct-07 20:55N 31°07' E 122°34'  

Dump ship's entire track history